Aj — WDI8684 — position and weather

sailwx.info

Track history (hours):
 
Tides and Currents Weather Stations Pressure Air Temp Water Temp Dewpoint Dewpoint Depression Visibility Wind Speed Wind Dir Waves Ship Positions

Aj

Owner: Harley Marine Services, Inc, Seattle, WA. More information available from US FCC via Universal Licensing System and Coast Guard Vessel Documentation Center.

Last reported at 2018-Feb-24 20:00 UTC. Time now 2018-Feb-24 20:18 UTC.
Position N 47°35' W 122°22'.

Length 30 m; draft 3.8 m.

Type: Tow > 200 m length. MMSI: 367741120.

Date/timePositionNaut miles runAvg speedWind from/ knotsBaromVisibWave heightAir tempDewpointWater temp
2018-Feb-24 20:00N 47°35' W 122°22'0 0.0
2018-Feb-24 19:31N 47°35' W 122°22'0 0.1
2018-Feb-24 19:00N 47°35' W 122°22'1 1.4
2018-Feb-24 18:30N 47°35' W 122°21'0 0.0
2018-Feb-24 18:00N 47°35' W 122°21'0 0.0
2018-Feb-24 17:28N 47°35' W 122°21'0 0.0
2018-Feb-24 16:58N 47°35' W 122°21'0 0.0
2018-Feb-24 16:28N 47°35' W 122°21'0 0.0
2018-Feb-24 15:58N 47°35' W 122°21'0 0.0
2018-Feb-24 15:28N 47°35' W 122°21'0 0.0
2018-Feb-24 14:58N 47°35' W 122°21'0 0.0
2018-Feb-24 14:28N 47°35' W 122°21'0 0.0
2018-Feb-24 13:58N 47°35' W 122°21'0 0.0
2018-Feb-24 13:28N 47°35' W 122°21'0 0.0
2018-Feb-24 12:58N 47°35' W 122°21'0 0.0
2018-Feb-24 12:28N 47°35' W 122°21'0 0.0
2018-Feb-24 11:58N 47°35' W 122°21'0 0.0
2018-Feb-24 11:28N 47°35' W 122°21'0 0.0
2018-Feb-24 10:58N 47°35' W 122°21'0 0.0
2018-Feb-24 10:28N 47°35' W 122°21'0 0.0
2018-Feb-24 09:58N 47°35' W 122°21'0 0.0
2018-Feb-24 09:28N 47°35' W 122°21'0 0.0
2018-Feb-24 08:58N 47°35' W 122°21'0 0.0
2018-Feb-24 08:28N 47°35' W 122°21'0 0.0
2018-Feb-24 07:58N 47°35' W 122°21'0 0.0
2018-Feb-24 07:28N 47°35' W 122°21'0 0.0
2018-Feb-24 06:55N 47°35' W 122°21'0 0.0
2018-Feb-24 06:28N 47°35' W 122°21'0 0.0
2018-Feb-24 05:58N 47°35' W 122°21'0 0.0
2018-Feb-24 05:28N 47°35' W 122°21'0 0.0
2018-Feb-24 04:58N 47°35' W 122°21'0 0.0
2018-Feb-24 04:25N 47°35' W 122°21'0 0.0
2018-Feb-24 03:58N 47°35' W 122°21'0 0.0
2018-Feb-24 03:28N 47°35' W 122°21'0 0.0
2018-Feb-24 02:58N 47°35' W 122°21'0 0.0
2018-Feb-24 02:28N 47°35' W 122°21'0 0.0
2018-Feb-24 01:58N 47°35' W 122°21'0 0.0
2018-Feb-24 01:28N 47°35' W 122°21'0 0.0
2018-Feb-24 00:58N 47°35' W 122°21'0 0.0
2018-Feb-24 00:31N 47°35' W 122°21'1 2.1
2018-Feb-24 00:01N 47°34' W 122°21'0 0.0
2018-Feb-23 23:30N 47°34' W 122°21'0 0.0
2018-Feb-23 23:00N 47°34' W 122°21'0 0.0
2018-Feb-23 22:31N 47°34' W 122°21'0 0.0
2018-Feb-23 22:01N 47°34' W 122°21'0 0.0
2018-Feb-23 21:31N 47°34' W 122°21'0 0.7
2018-Feb-23 21:00N 47°35' W 122°21'1 1.4
2018-Feb-23 20:30N 47°35' W 122°21'1 1.7
2018-Feb-23 20:01N 47°36' W 122°21'1 1.9
2018-Feb-23 19:31N 47°37' W 122°23'2 4.4
2018-Feb-23 19:01N 47°38' W 122°26'3 5.3
2018-Feb-23 18:31N 47°40' W 122°28'3 6.2
2018-Feb-23 18:01N 47°43' W 122°28'3 6.2
2018-Feb-23 17:31N 47°46' W 122°27'3 5.8
2018-Feb-23 17:00N 47°49' W 122°28'3 5.9
2018-Feb-23 16:30N 47°51' W 122°29'3 5.8
2018-Feb-23 16:01N 47°54' W 122°30'3 6.1
2018-Feb-23 15:30N 47°56' W 122°33'3 6.2
2018-Feb-23 15:00N 47°59' W 122°36'14 6.2
2018-Feb-23 12:47N 48°10' W 122°47'2 6.4
2018-Feb-23 12:28N 48°11' W 122°50'3 5.6
2018-Feb-23 11:57N 48°11' W 122°54'3 5.1
2018-Feb-23 11:25N 48°11' W 122°58'3 5.8
2018-Feb-23 10:57N 48°12' W 123°02'2 5.2
2018-Feb-23 10:30N 48°12' W 123°06'2 5.1
2018-Feb-23 10:00N 48°11' W 123°10'3 5.3
2018-Feb-23 09:31N 48°10' W 123°13'3 5.0
2018-Feb-23 09:01N 48°10' W 123°17'3 5.4
2018-Feb-23 08:30N 48°09' W 123°21'3 5.6
2018-Feb-23 08:00N 48°08' W 123°25'1 1.6
2018-Feb-23 07:30N 48°08' W 123°26'1 0.0
2018-Feb-21 14:22N 48°08' W 123°25'0 0.0
2018-Feb-21 13:37N 48°08' W 123°25'0 0.4
2018-Feb-21 13:30N 48°08' W 123°25'1 1.7
2018-Feb-21 13:00N 48°08' W 123°24'1 2.2
2018-Feb-21 12:28N 48°09' W 123°22'2 3.5
2018-Feb-21 11:56N 48°10' W 123°20'2 3.7
2018-Feb-21 11:28N 48°11' W 123°18'2 3.9
2018-Feb-21 10:59N 48°12' W 123°16'3 6.1
2018-Feb-21 10:30N 48°14' W 123°13'4 7.1
2018-Feb-21 09:59N 48°16' W 123°08'4 7.5
2018-Feb-21 09:30N 48°18' W 123°04'4 7.8
2018-Feb-21 09:00N 48°20' W 122°59'4 7.5
2018-Feb-21 08:31N 48°22' W 122°54'4 7.6
2018-Feb-21 08:00N 48°24' W 122°49'4 7.8
2018-Feb-21 07:31N 48°27' W 122°45'4 8.1
2018-Feb-21 07:00N 48°31' W 122°43'4 7.7
2018-Feb-21 06:30N 48°34' W 122°40'3 6.6
2018-Feb-21 06:00N 48°37' W 122°37'3 5.4
2018-Feb-21 05:30N 48°37' W 122°33'1 1.3
2018-Feb-21 05:00N 48°36' W 122°33'0 0.1
2018-Feb-21 04:29N 48°36' W 122°33'0 0.0
2018-Feb-21 03:38N 48°36' W 122°33'0 0.0
2018-Feb-21 03:26N 48°36' W 122°33'0 0.0
2018-Feb-21 02:56N 48°36' W 122°33'0 0.0
2018-Feb-21 02:26N 48°36' W 122°33'0 0.0
2018-Feb-21 01:53N 48°36' W 122°33'0 0.0
2018-Feb-21 01:20N 48°36' W 122°33'0 0.1
2018-Feb-21 00:56N 48°36' W 122°33'0 0.0
2018-Feb-20 22:59N 48°36' W 122°33'0 0.0
2018-Feb-20 22:26N 48°36' W 122°33'0 0.0
2018-Feb-20 21:44N 48°36' W 122°33'0 0.1
2018-Feb-20 21:26N 48°36' W 122°33'0 0.0
2018-Feb-20 20:59N 48°36' W 122°33'0 0.1
2018-Feb-20 20:29N 48°36' W 122°33'0 0.1
2018-Feb-20 19:56N 48°36' W 122°33'0 0.0
2018-Feb-20 19:20N 48°36' W 122°33'0 0.0
2018-Feb-20 18:56N 48°36' W 122°33'0 0.1
2018-Feb-20 18:26N 48°36' W 122°33'0 0.0
2018-Feb-20 17:50N 48°36' W 122°33'0 0.1
2018-Feb-20 17:26N 48°36' W 122°33'0 0.0
2018-Feb-20 16:56N 48°36' W 122°33'0 0.2
2018-Feb-20 16:26N 48°36' W 122°33'0 0.1
2018-Feb-20 15:59N 48°36' W 122°33'0 0.3
2018-Feb-20 15:30N 48°36' W 122°33'1 1.5
2018-Feb-20 15:00N 48°37' W 122°34'2 3.7
2018-Feb-20 14:30N 48°38' W 122°36'3 5.3
2018-Feb-20 14:01N 48°36' W 122°39'3 5.6
2018-Feb-20 13:30N 48°33' W 122°40'3 5.2
2018-Feb-20 13:01N 48°31' W 122°42'2 4.2
2018-Feb-20 12:31N 48°29' W 122°44'2 4.0
2018-Feb-20 12:00N 48°27' W 122°44'2 3.3
2018-Feb-20 11:29N 48°26' W 122°44'1 2.8
2018-Feb-20 11:01N 48°24' W 122°44'1 2.5
2018-Feb-20 10:30N 48°23' W 122°44'1 2.5
2018-Feb-20 10:00N 48°22' W 122°44'1 2.3
2018-Feb-20 09:29N 48°21' W 122°45'1 2.3
2018-Feb-20 08:53N 48°19' W 122°46'1 2.2
2018-Feb-20 08:22N 48°18' W 122°46'1 2.4
2018-Feb-20 07:56N 48°17' W 122°47'1 2.4
2018-Feb-20 07:30N 48°16' W 122°47'1 2.7
2018-Feb-20 06:58N 48°15' W 122°48'2 4.7
2018-Feb-20 06:29N 48°13' W 122°48'16 8.3
2018-Feb-20 04:30N 47°59' W 122°35'4 7.7
2018-Feb-20 04:01N 47°56' W 122°30'3 6.3
2018-Feb-20 03:31N 47°54' W 122°28'3 6.8
2018-Feb-20 03:00N 47°50' W 122°27'3 6.1
2018-Feb-20 02:30N 47°47' W 122°26'3 5.3
2018-Feb-20 02:01N 47°45' W 122°26'3 5.0
2018-Feb-20 01:31N 47°42' W 122°27'3 5.1
2018-Feb-20 01:01N 47°40' W 122°27'3 5.5
2018-Feb-20 00:30N 47°37' W 122°25'3 5.7
2018-Feb-20 00:01N 47°36' W 122°21'1 1.1
2018-Feb-19 23:29N 47°35' W 122°21'0 0.0
2018-Feb-19 23:00N 47°35' W 122°21'0 0.0
2018-Feb-19 22:29N 47°35' W 122°21'0 0.0
2018-Feb-19 21:59N 47°35' W 122°21'0 0.0
2018-Feb-19 21:23N 47°35' W 122°21'0 0.0
2018-Feb-19 20:59N 47°35' W 122°21'0 0.0
2018-Feb-19 20:27N 47°35' W 122°21'0 0.0
2018-Feb-19 19:59N 47°35' W 122°21'0 0.0
2018-Feb-19 19:29N 47°35' W 122°21'0 0.0
2018-Feb-19 19:00N 47°35' W 122°21'0 0.0
2018-Feb-19 18:30N 47°35' W 122°21'0 0.0
2018-Feb-19 17:59N 47°35' W 122°21'0 0.0
2018-Feb-19 17:29N 47°35' W 122°21'0 0.0
2018-Feb-19 16:59N 47°35' W 122°21'0 0.0
2018-Feb-19 16:29N 47°35' W 122°21'0 0.0
2018-Feb-19 15:59N 47°35' W 122°21'0 0.0
2018-Feb-19 15:29N 47°35' W 122°21'0 0.0
2018-Feb-19 14:59N 47°35' W 122°21'0 0.6
2018-Feb-19 14:30N 47°35' W 122°21'0 0.0
2018-Feb-19 14:00N 47°35' W 122°21'0 0.0
2018-Feb-19 13:30N 47°35' W 122°21'0 0.0
2018-Feb-19 13:00N 47°35' W 122°21'0 0.0
2018-Feb-19 12:30N 47°35' W 122°21'0 0.0
2018-Feb-19 12:00N 47°35' W 122°21'0 0.0
2018-Feb-19 11:30N 47°35' W 122°21'0 0.0
2018-Feb-19 11:00N 47°35' W 122°21'0 0.0
2018-Feb-19 10:30N 47°35' W 122°21'0 0.0
2018-Feb-19 10:00N 47°35' W 122°21'0 0.0
2018-Feb-19 09:30N 47°35' W 122°21'0 0.0
2018-Feb-19 08:57N 47°35' W 122°21'0 0.0
2018-Feb-19 08:30N 47°35' W 122°21'0 0.0
2018-Feb-19 08:00N 47°35' W 122°21'0 0.0
2018-Feb-19 07:30N 47°35' W 122°21'0 0.0
2018-Feb-19 07:00N 47°35' W 122°21'0 0.0
2018-Feb-19 06:30N 47°35' W 122°21'0 0.0
2018-Feb-19 06:00N 47°35' W 122°21'0 0.0
2018-Feb-19 05:30N 47°35' W 122°21'0 0.0
2018-Feb-19 05:00N 47°35' W 122°21'0 0.0
2018-Feb-19 04:30N 47°35' W 122°21'0 0.0
2018-Feb-19 04:00N 47°35' W 122°21'0 0.0
2018-Feb-19 03:30N 47°35' W 122°21'0 0.0
2018-Feb-19 03:00N 47°35' W 122°21'0 0.0
2018-Feb-19 02:30N 47°35' W 122°21'0 0.0
2018-Feb-19 02:00N 47°35' W 122°21'0 0.0
2018-Feb-19 01:30N 47°35' W 122°21'0 0.0
2018-Feb-19 00:57N 47°35' W 122°21'0 0.0
2018-Feb-19 00:25N 47°35' W 122°21'0 0.7
2018-Feb-19 00:00N 47°35' W 122°21'0 0.0
2018-Feb-18 23:24N 47°35' W 122°21'0 0.0
2018-Feb-18 22:54N 47°35' W 122°21'0 0.0
2018-Feb-18 22:12N 47°35' W 122°21'0 0.0
2018-Feb-18 22:00N 47°35' W 122°21'0 0.0
2018-Feb-18 21:29N 47°35' W 122°21'0 0.0
2018-Feb-18 21:00N 47°35' W 122°21'0 0.0
2018-Feb-18 20:26N 47°35' W 122°21'0 0.0
2018-Feb-18 19:57N 47°35' W 122°21'1 2.3
2018-Feb-18 19:30N 47°34' W 122°21'0 0.0
2018-Feb-18 19:00N 47°34' W 122°21'0 0.0
2018-Feb-18 18:27N 47°34' W 122°21'0 0.0
2018-Feb-18 18:00N 47°34' W 122°21'0 0.0
2018-Feb-18 17:30N 47°34' W 122°21'0 0.0
2018-Feb-18 17:00N 47°34' W 122°21'0 0.0
2018-Feb-18 16:30N 47°34' W 122°21'0 0.0
2018-Feb-18 16:00N 47°34' W 122°21'0 0.0
2018-Feb-18 15:30N 47°34' W 122°21'0 0.0
2018-Feb-18 15:00N 47°34' W 122°21'0 0.0
2018-Feb-18 14:30N 47°34' W 122°21'0 0.0
2018-Feb-18 13:59N 47°34' W 122°21'1 2.2
2018-Feb-18 13:30N 47°35' W 122°21'0 0.0
2018-Feb-18 13:00N 47°35' W 122°21'0 0.0
2018-Feb-18 12:31N 47°35' W 122°21'0 0.0
2018-Feb-18 12:00N 47°35' W 122°21'1 1.3
2018-Feb-18 11:29N 47°35' W 122°22'0 0.0
2018-Feb-18 10:59N 47°35' W 122°22'0 0.0
2018-Feb-18 10:29N 47°35' W 122°22'0 0.0
2018-Feb-18 09:59N 47°35' W 122°22'0 0.0
2018-Feb-18 09:29N 47°35' W 122°22'0 0.0
2018-Feb-18 08:59N 47°35' W 122°22'0 0.0
2018-Feb-18 08:29N 47°35' W 122°22'0 0.0
2018-Feb-18 07:59N 47°35' W 122°22'0 0.0
2018-Feb-18 07:29N 47°35' W 122°22'0 0.0
2018-Feb-18 06:59N 47°35' W 122°22'0 0.0
2018-Feb-18 06:29N 47°35' W 122°22'0 0.0
2018-Feb-18 05:59N 47°35' W 122°22'0 0.0
2018-Feb-18 05:29N 47°35' W 122°22'0 0.0
2018-Feb-18 04:59N 47°35' W 122°22'0 0.0
2018-Feb-18 04:29N 47°35' W 122°22'0 0.0
2018-Feb-18 03:59N 47°35' W 122°22'0 0.0
2018-Feb-18 03:29N 47°35' W 122°22'0 0.0
2018-Feb-18 02:59N 47°35' W 122°22'0 0.0
2018-Feb-18 02:30N 47°35' W 122°22'1 2.3
2018-Feb-18 02:00N 47°36' W 122°22'0 0.6
2018-Feb-18 01:30N 47°36' W 122°22'2 3.6
2018-Feb-18 01:00N 47°37' W 122°24'3 5.8
2018-Feb-18 00:30N 47°39' W 122°27'3 5.1
2018-Feb-18 00:00N 47°41' W 122°28'3 5.7
2018-Feb-17 23:30N 47°44' W 122°27'3 5.5
2018-Feb-17 23:00N 47°47' W 122°27'3 6.7
2018-Feb-17 22:30N 47°50' W 122°28'4 8.4
2018-Feb-17 22:00N 47°54' W 122°30'4 8.1
2018-Feb-17 21:29N 47°57' W 122°35'31 5.8
2018-Feb-17 16:12N 48°10' W 123°17'1 6.4
2018-Feb-17 16:00N 48°09' W 123°18'3 6.5
2018-Feb-17 15:30N 48°08' W 123°23'2 4.4
2018-Feb-17 15:00N 48°08' W 123°26'0 0.3
2018-Feb-17 14:23N 48°08' W 123°26'0 0.0
2018-Feb-17 13:59N 48°08' W 123°26'0 0.0
2018-Feb-17 13:30N 48°08' W 123°26'0 0.0
2018-Feb-17 13:00N 48°08' W 123°26'0 0.0
2018-Feb-17 12:30N 48°08' W 123°26'0 0.0
2018-Feb-17 12:00N 48°08' W 123°26'0 0.0
2018-Feb-17 11:27N 48°08' W 123°26'0 0.0
2018-Feb-17 11:00N 48°08' W 123°26'0 0.0
2018-Feb-17 10:29N 48°08' W 123°26'0 0.0
2018-Feb-17 09:56N 48°08' W 123°26'1 0.5
2018-Feb-17 07:58N 48°08' W 123°25'0 0.0
2018-Feb-17 07:30N 48°08' W 123°25'0 0.0
2018-Feb-17 07:00N 48°08' W 123°25'0 0.0
2018-Feb-17 06:30N 48°08' W 123°25'1 0.0
2018-Feb-15 14:50N 48°08' W 123°26'0 0.0
2018-Feb-15 14:30N 48°08' W 123°26'0 0.0
2018-Feb-15 14:00N 48°08' W 123°26'0 0.0
2018-Feb-15 13:30N 48°08' W 123°26'0 0.0
2018-Feb-15 13:00N 48°08' W 123°26'0 0.0
2018-Feb-15 12:30N 48°08' W 123°26'0 0.0
2018-Feb-15 12:00N 48°08' W 123°26'0 0.0
2018-Feb-15 11:30N 48°08' W 123°26'0 0.0
2018-Feb-15 11:00N 48°08' W 123°26'0 0.0
2018-Feb-15 10:30N 48°08' W 123°26'0 0.0
2018-Feb-15 10:00N 48°08' W 123°26'0 0.0
2018-Feb-15 09:30N 48°08' W 123°26'0 0.0
2018-Feb-15 09:00N 48°08' W 123°26'0 0.0
2018-Feb-15 08:30N 48°08' W 123°26'0 0.0
2018-Feb-15 08:00N 48°08' W 123°26'0 0.0
2018-Feb-15 07:30N 48°08' W 123°26'0 0.0
2018-Feb-15 07:00N 48°08' W 123°26'0 0.0
2018-Feb-15 06:29N 48°08' W 123°26'0 0.0
2018-Feb-15 05:58N 48°08' W 123°26'  
Track history (hours):
 
Tides and Currents Weather Stations Pressure Air Temp Water Temp Dewpoint Dewpoint Depression Visibility Wind Speed Wind Dir Waves Ship Positions

Aj

Owner: Harley Marine Services, Inc, Seattle, WA. More information available from US FCC via Universal Licensing System and Coast Guard Vessel Documentation Center.

Last reported at 2018-Feb-24 20:00 UTC. Time now 2018-Feb-24 20:18 UTC.
Position N 47°35' W 122°22'.

Length 30 m; draft 3.8 m.

Type: Tow > 200 m length. MMSI: 367741120.

Date/timePositionNaut miles runAvg speedWind from/ knotsBaromVisibWave heightAir tempDewpointWater temp
2018-Feb-24 20:00N 47°35' W 122°22'0 0.0
2018-Feb-24 19:31N 47°35' W 122°22'0 0.1
2018-Feb-24 19:00N 47°35' W 122°22'1 1.4
2018-Feb-24 18:30N 47°35' W 122°21'0 0.0
2018-Feb-24 18:00N 47°35' W 122°21'0 0.0
2018-Feb-24 17:28N 47°35' W 122°21'0 0.0
2018-Feb-24 16:58N 47°35' W 122°21'0 0.0
2018-Feb-24 16:28N 47°35' W 122°21'0 0.0
2018-Feb-24 15:58N 47°35' W 122°21'0 0.0
2018-Feb-24 15:28N 47°35' W 122°21'0 0.0
2018-Feb-24 14:58N 47°35' W 122°21'0 0.0
2018-Feb-24 14:28N 47°35' W 122°21'0 0.0
2018-Feb-24 13:58N 47°35' W 122°21'0 0.0
2018-Feb-24 13:28N 47°35' W 122°21'0 0.0
2018-Feb-24 12:58N 47°35' W 122°21'0 0.0
2018-Feb-24 12:28N 47°35' W 122°21'0 0.0
2018-Feb-24 11:58N 47°35' W 122°21'0 0.0
2018-Feb-24 11:28N 47°35' W 122°21'0 0.0
2018-Feb-24 10:58N 47°35' W 122°21'0 0.0
2018-Feb-24 10:28N 47°35' W 122°21'0 0.0
2018-Feb-24 09:58N 47°35' W 122°21'0 0.0
2018-Feb-24 09:28N 47°35' W 122°21'0 0.0
2018-Feb-24 08:58N 47°35' W 122°21'0 0.0
2018-Feb-24 08:28N 47°35' W 122°21'0 0.0
2018-Feb-24 07:58N 47°35' W 122°21'0 0.0
2018-Feb-24 07:28N 47°35' W 122°21'0 0.0
2018-Feb-24 06:55N 47°35' W 122°21'0 0.0
2018-Feb-24 06:28N 47°35' W 122°21'0 0.0
2018-Feb-24 05:58N 47°35' W 122°21'0 0.0
2018-Feb-24 05:28N 47°35' W 122°21'0 0.0
2018-Feb-24 04:58N 47°35' W 122°21'0 0.0
2018-Feb-24 04:25N 47°35' W 122°21'0 0.0
2018-Feb-24 03:58N 47°35' W 122°21'0 0.0
2018-Feb-24 03:28N 47°35' W 122°21'0 0.0
2018-Feb-24 02:58N 47°35' W 122°21'0 0.0
2018-Feb-24 02:28N 47°35' W 122°21'0 0.0
2018-Feb-24 01:58N 47°35' W 122°21'0 0.0
2018-Feb-24 01:28N 47°35' W 122°21'0 0.0
2018-Feb-24 00:58N 47°35' W 122°21'0 0.0
2018-Feb-24 00:31N 47°35' W 122°21'1 2.1
2018-Feb-24 00:01N 47°34' W 122°21'0 0.0
2018-Feb-23 23:30N 47°34' W 122°21'0 0.0
2018-Feb-23 23:00N 47°34' W 122°21'0 0.0
2018-Feb-23 22:31N 47°34' W 122°21'0 0.0
2018-Feb-23 22:01N 47°34' W 122°21'0 0.0
2018-Feb-23 21:31N 47°34' W 122°21'0 0.7
2018-Feb-23 21:00N 47°35' W 122°21'1 1.4
2018-Feb-23 20:30N 47°35' W 122°21'1 1.7
2018-Feb-23 20:01N 47°36' W 122°21'1 1.9
2018-Feb-23 19:31N 47°37' W 122°23'2 4.4
2018-Feb-23 19:01N 47°38' W 122°26'3 5.3
2018-Feb-23 18:31N 47°40' W 122°28'3 6.2
2018-Feb-23 18:01N 47°43' W 122°28'3 6.2
2018-Feb-23 17:31N 47°46' W 122°27'3 5.8
2018-Feb-23 17:00N 47°49' W 122°28'3 5.9
2018-Feb-23 16:30N 47°51' W 122°29'3 5.8
2018-Feb-23 16:01N 47°54' W 122°30'3 6.1
2018-Feb-23 15:30N 47°56' W 122°33'3 6.2
2018-Feb-23 15:00N 47°59' W 122°36'14 6.2
2018-Feb-23 12:47N 48°10' W 122°47'2 6.4
2018-Feb-23 12:28N 48°11' W 122°50'3 5.6
2018-Feb-23 11:57N 48°11' W 122°54'3 5.1
2018-Feb-23 11:25N 48°11' W 122°58'3 5.8
2018-Feb-23 10:57N 48°12' W 123°02'2 5.2
2018-Feb-23 10:30N 48°12' W 123°06'2 5.1
2018-Feb-23 10:00N 48°11' W 123°10'3 5.3
2018-Feb-23 09:31N 48°10' W 123°13'3 5.0
2018-Feb-23 09:01N 48°10' W 123°17'3 5.4
2018-Feb-23 08:30N 48°09' W 123°21'3 5.6
2018-Feb-23 08:00N 48°08' W 123°25'1 1.6
2018-Feb-23 07:30N 48°08' W 123°26'1 0.0
2018-Feb-21 14:22N 48°08' W 123°25'0 0.0
2018-Feb-21 13:37N 48°08' W 123°25'0 0.4
2018-Feb-21 13:30N 48°08' W 123°25'1 1.7
2018-Feb-21 13:00N 48°08' W 123°24'1 2.2
2018-Feb-21 12:28N 48°09' W 123°22'2 3.5
2018-Feb-21 11:56N 48°10' W 123°20'2 3.7
2018-Feb-21 11:28N 48°11' W 123°18'2 3.9
2018-Feb-21 10:59N 48°12' W 123°16'3 6.1
2018-Feb-21 10:30N 48°14' W 123°13'4 7.1
2018-Feb-21 09:59N 48°16' W 123°08'4 7.5
2018-Feb-21 09:30N 48°18' W 123°04'4 7.8
2018-Feb-21 09:00N 48°20' W 122°59'4 7.5
2018-Feb-21 08:31N 48°22' W 122°54'4 7.6
2018-Feb-21 08:00N 48°24' W 122°49'4 7.8
2018-Feb-21 07:31N 48°27' W 122°45'4 8.1
2018-Feb-21 07:00N 48°31' W 122°43'4 7.7
2018-Feb-21 06:30N 48°34' W 122°40'3 6.6
2018-Feb-21 06:00N 48°37' W 122°37'3 5.4
2018-Feb-21 05:30N 48°37' W 122°33'1 1.3
2018-Feb-21 05:00N 48°36' W 122°33'0 0.1
2018-Feb-21 04:29N 48°36' W 122°33'0 0.0
2018-Feb-21 03:38N 48°36' W 122°33'0 0.0
2018-Feb-21 03:26N 48°36' W 122°33'0 0.0
2018-Feb-21 02:56N 48°36' W 122°33'0 0.0
2018-Feb-21 02:26N 48°36' W 122°33'0 0.0
2018-Feb-21 01:53N 48°36' W 122°33'0 0.0
2018-Feb-21 01:20N 48°36' W 122°33'0 0.1
2018-Feb-21 00:56N 48°36' W 122°33'0 0.0
2018-Feb-20 22:59N 48°36' W 122°33'0 0.0
2018-Feb-20 22:26N 48°36' W 122°33'0 0.0
2018-Feb-20 21:44N 48°36' W 122°33'0 0.1
2018-Feb-20 21:26N 48°36' W 122°33'0 0.0
2018-Feb-20 20:59N 48°36' W 122°33'0 0.1
2018-Feb-20 20:29N 48°36' W 122°33'0 0.1
2018-Feb-20 19:56N 48°36' W 122°33'0 0.0
2018-Feb-20 19:20N 48°36' W 122°33'0 0.0
2018-Feb-20 18:56N 48°36' W 122°33'0 0.1
2018-Feb-20 18:26N 48°36' W 122°33'0 0.0
2018-Feb-20 17:50N 48°36' W 122°33'0 0.1
2018-Feb-20 17:26N 48°36' W 122°33'0 0.0
2018-Feb-20 16:56N 48°36' W 122°33'0 0.2
2018-Feb-20 16:26N 48°36' W 122°33'0 0.1
2018-Feb-20 15:59N 48°36' W 122°33'0 0.3
2018-Feb-20 15:30N 48°36' W 122°33'1 1.5
2018-Feb-20 15:00N 48°37' W 122°34'2 3.7
2018-Feb-20 14:30N 48°38' W 122°36'3 5.3
2018-Feb-20 14:01N 48°36' W 122°39'3 5.6
2018-Feb-20 13:30N 48°33' W 122°40'3 5.2
2018-Feb-20 13:01N 48°31' W 122°42'2 4.2
2018-Feb-20 12:31N 48°29' W 122°44'2 4.0
2018-Feb-20 12:00N 48°27' W 122°44'2 3.3
2018-Feb-20 11:29N 48°26' W 122°44'1 2.8
2018-Feb-20 11:01N 48°24' W 122°44'1 2.5
2018-Feb-20 10:30N 48°23' W 122°44'1 2.5
2018-Feb-20 10:00N 48°22' W 122°44'1 2.3
2018-Feb-20 09:29N 48°21' W 122°45'1 2.3
2018-Feb-20 08:53N 48°19' W 122°46'1 2.2
2018-Feb-20 08:22N 48°18' W 122°46'1 2.4
2018-Feb-20 07:56N 48°17' W 122°47'1 2.4
2018-Feb-20 07:30N 48°16' W 122°47'1 2.7
2018-Feb-20 06:58N 48°15' W 122°48'2 4.7
2018-Feb-20 06:29N 48°13' W 122°48'16 8.3
2018-Feb-20 04:30N 47°59' W 122°35'4 7.7
2018-Feb-20 04:01N 47°56' W 122°30'3 6.3
2018-Feb-20 03:31N 47°54' W 122°28'3 6.8
2018-Feb-20 03:00N 47°50' W 122°27'3 6.1
2018-Feb-20 02:30N 47°47' W 122°26'3 5.3
2018-Feb-20 02:01N 47°45' W 122°26'3 5.0
2018-Feb-20 01:31N 47°42' W 122°27'3 5.1
2018-Feb-20 01:01N 47°40' W 122°27'3 5.5
2018-Feb-20 00:30N 47°37' W 122°25'3 5.7
2018-Feb-20 00:01N 47°36' W 122°21'1 1.1
2018-Feb-19 23:29N 47°35' W 122°21'0 0.0
2018-Feb-19 23:00N 47°35' W 122°21'0 0.0
2018-Feb-19 22:29N 47°35' W 122°21'0 0.0
2018-Feb-19 21:59N 47°35' W 122°21'0 0.0
2018-Feb-19 21:23N 47°35' W 122°21'0 0.0
2018-Feb-19 20:59N 47°35' W 122°21'0 0.0
2018-Feb-19 20:27N 47°35' W 122°21'0 0.0
2018-Feb-19 19:59N 47°35' W 122°21'0 0.0
2018-Feb-19 19:29N 47°35' W 122°21'0 0.0
2018-Feb-19 19:00N 47°35' W 122°21'0 0.0
2018-Feb-19 18:30N 47°35' W 122°21'0 0.0
2018-Feb-19 17:59N 47°35' W 122°21'0 0.0
2018-Feb-19 17:29N 47°35' W 122°21'0 0.0
2018-Feb-19 16:59N 47°35' W 122°21'0 0.0
2018-Feb-19 16:29N 47°35' W 122°21'0 0.0
2018-Feb-19 15:59N 47°35' W 122°21'0 0.0
2018-Feb-19 15:29N 47°35' W 122°21'0 0.0
2018-Feb-19 14:59N 47°35' W 122°21'0 0.6
2018-Feb-19 14:30N 47°35' W 122°21'0 0.0
2018-Feb-19 14:00N 47°35' W 122°21'0 0.0
2018-Feb-19 13:30N 47°35' W 122°21'0 0.0
2018-Feb-19 13:00N 47°35' W 122°21'0 0.0
2018-Feb-19 12:30N 47°35' W 122°21'0 0.0
2018-Feb-19 12:00N 47°35' W 122°21'0 0.0
2018-Feb-19 11:30N 47°35' W 122°21'0 0.0
2018-Feb-19 11:00N 47°35' W 122°21'0 0.0
2018-Feb-19 10:30N 47°35' W 122°21'0 0.0
2018-Feb-19 10:00N 47°35' W 122°21'0 0.0
2018-Feb-19 09:30N 47°35' W 122°21'0 0.0
2018-Feb-19 08:57N 47°35' W 122°21'0 0.0
2018-Feb-19 08:30N 47°35' W 122°21'0 0.0
2018-Feb-19 08:00N 47°35' W 122°21'0 0.0
2018-Feb-19 07:30N 47°35' W 122°21'0 0.0
2018-Feb-19 07:00N 47°35' W 122°21'0 0.0
2018-Feb-19 06:30N 47°35' W 122°21'0 0.0
2018-Feb-19 06:00N 47°35' W 122°21'0 0.0
2018-Feb-19 05:30N 47°35' W 122°21'0 0.0
2018-Feb-19 05:00N 47°35' W 122°21'0 0.0
2018-Feb-19 04:30N 47°35' W 122°21'0 0.0
2018-Feb-19 04:00N 47°35' W 122°21'0 0.0
2018-Feb-19 03:30N 47°35' W 122°21'0 0.0
2018-Feb-19 03:00N 47°35' W 122°21'0 0.0
2018-Feb-19 02:30N 47°35' W 122°21'0 0.0
2018-Feb-19 02:00N 47°35' W 122°21'0 0.0
2018-Feb-19 01:30N 47°35' W 122°21'0 0.0
2018-Feb-19 00:57N 47°35' W 122°21'0 0.0
2018-Feb-19 00:25N 47°35' W 122°21'0 0.7
2018-Feb-19 00:00N 47°35' W 122°21'0 0.0
2018-Feb-18 23:24N 47°35' W 122°21'0 0.0
2018-Feb-18 22:54N 47°35' W 122°21'0 0.0
2018-Feb-18 22:12N 47°35' W 122°21'0 0.0
2018-Feb-18 22:00N 47°35' W 122°21'0 0.0
2018-Feb-18 21:29N 47°35' W 122°21'0 0.0
2018-Feb-18 21:00N 47°35' W 122°21'0 0.0
2018-Feb-18 20:26N 47°35' W 122°21'0 0.0
2018-Feb-18 19:57N 47°35' W 122°21'1 2.3
2018-Feb-18 19:30N 47°34' W 122°21'0 0.0
2018-Feb-18 19:00N 47°34' W 122°21'0 0.0
2018-Feb-18 18:27N 47°34' W 122°21'0 0.0
2018-Feb-18 18:00N 47°34' W 122°21'0 0.0
2018-Feb-18 17:30N 47°34' W 122°21'0 0.0
2018-Feb-18 17:00N 47°34' W 122°21'0 0.0
2018-Feb-18 16:30N 47°34' W 122°21'0 0.0
2018-Feb-18 16:00N 47°34' W 122°21'0 0.0
2018-Feb-18 15:30N 47°34' W 122°21'0 0.0
2018-Feb-18 15:00N 47°34' W 122°21'0 0.0
2018-Feb-18 14:30N 47°34' W 122°21'0 0.0
2018-Feb-18 13:59N 47°34' W 122°21'1 2.2
2018-Feb-18 13:30N 47°35' W 122°21'0 0.0
2018-Feb-18 13:00N 47°35' W 122°21'0 0.0
2018-Feb-18 12:31N 47°35' W 122°21'0 0.0
2018-Feb-18 12:00N 47°35' W 122°21'1 1.3
2018-Feb-18 11:29N 47°35' W 122°22'0 0.0
2018-Feb-18 10:59N 47°35' W 122°22'0 0.0
2018-Feb-18 10:29N 47°35' W 122°22'0 0.0
2018-Feb-18 09:59N 47°35' W 122°22'0 0.0
2018-Feb-18 09:29N 47°35' W 122°22'0 0.0
2018-Feb-18 08:59N 47°35' W 122°22'0 0.0
2018-Feb-18 08:29N 47°35' W 122°22'0 0.0
2018-Feb-18 07:59N 47°35' W 122°22'0 0.0
2018-Feb-18 07:29N 47°35' W 122°22'0 0.0
2018-Feb-18 06:59N 47°35' W 122°22'0 0.0
2018-Feb-18 06:29N 47°35' W 122°22'0 0.0
2018-Feb-18 05:59N 47°35' W 122°22'0 0.0
2018-Feb-18 05:29N 47°35' W 122°22'0 0.0
2018-Feb-18 04:59N 47°35' W 122°22'0 0.0
2018-Feb-18 04:29N 47°35' W 122°22'0 0.0
2018-Feb-18 03:59N 47°35' W 122°22'0 0.0
2018-Feb-18 03:29N 47°35' W 122°22'0 0.0
2018-Feb-18 02:59N 47°35' W 122°22'0 0.0
2018-Feb-18 02:30N 47°35' W 122°22'1 2.3
2018-Feb-18 02:00N 47°36' W 122°22'0 0.6
2018-Feb-18 01:30N 47°36' W 122°22'2 3.6
2018-Feb-18 01:00N 47°37' W 122°24'3 5.8
2018-Feb-18 00:30N 47°39' W 122°27'3 5.1
2018-Feb-18 00:00N 47°41' W 122°28'3 5.7
2018-Feb-17 23:30N 47°44' W 122°27'3 5.5
2018-Feb-17 23:00N 47°47' W 122°27'3 6.7
2018-Feb-17 22:30N 47°50' W 122°28'4 8.4
2018-Feb-17 22:00N 47°54' W 122°30'4 8.1
2018-Feb-17 21:29N 47°57' W 122°35'31 5.8
2018-Feb-17 16:12N 48°10' W 123°17'1 6.4
2018-Feb-17 16:00N 48°09' W 123°18'3 6.5
2018-Feb-17 15:30N 48°08' W 123°23'2 4.4
2018-Feb-17 15:00N 48°08' W 123°26'0 0.3
2018-Feb-17 14:23N 48°08' W 123°26'0 0.0
2018-Feb-17 13:59N 48°08' W 123°26'0 0.0
2018-Feb-17 13:30N 48°08' W 123°26'0 0.0
2018-Feb-17 13:00N 48°08' W 123°26'0 0.0
2018-Feb-17 12:30N 48°08' W 123°26'0 0.0
2018-Feb-17 12:00N 48°08' W 123°26'0 0.0
2018-Feb-17 11:27N 48°08' W 123°26'0 0.0
2018-Feb-17 11:00N 48°08' W 123°26'0 0.0
2018-Feb-17 10:29N 48°08' W 123°26'0 0.0
2018-Feb-17 09:56N 48°08' W 123°26'1 0.5
2018-Feb-17 07:58N 48°08' W 123°25'0 0.0
2018-Feb-17 07:30N 48°08' W 123°25'0 0.0
2018-Feb-17 07:00N 48°08' W 123°25'0 0.0
2018-Feb-17 06:30N 48°08' W 123°25'1 0.0
2018-Feb-15 14:50N 48°08' W 123°26'0 0.0
2018-Feb-15 14:30N 48°08' W 123°26'0 0.0
2018-Feb-15 14:00N 48°08' W 123°26'0 0.0
2018-Feb-15 13:30N 48°08' W 123°26'0 0.0
2018-Feb-15 13:00N 48°08' W 123°26'0 0.0
2018-Feb-15 12:30N 48°08' W 123°26'0 0.0
2018-Feb-15 12:00N 48°08' W 123°26'0 0.0
2018-Feb-15 11:30N 48°08' W 123°26'0 0.0
2018-Feb-15 11:00N 48°08' W 123°26'0 0.0
2018-Feb-15 10:30N 48°08' W 123°26'0 0.0
2018-Feb-15 10:00N 48°08' W 123°26'0 0.0
2018-Feb-15 09:30N 48°08' W 123°26'0 0.0
2018-Feb-15 09:00N 48°08' W 123°26'0 0.0
2018-Feb-15 08:30N 48°08' W 123°26'0 0.0
2018-Feb-15 08:00N 48°08' W 123°26'0 0.0
2018-Feb-15 07:30N 48°08' W 123°26'0 0.0
2018-Feb-15 07:00N 48°08' W 123°26'0 0.0
2018-Feb-15 06:29N 48°08' W 123°26'0 0.0
2018-Feb-15 05:58N 48°08' W 123°26'  

Dump ship's entire track history